Terminal Aerodrome Forecast
Issued by NWS Twin Cities, MN

Home | Current Version | Previous Version | Text Only | Print | Product List | Glossary Off
Versions: 1 2 3 4 5 6 7 8 9 10 11 12 13 14 15 16 17 18 19 20 21 22 23 24 25 26

000
FTUS43 KMPX 121100
TAFMSP
TAF
KMSP 121120Z 1212/1318 34005KT P6SM SCT060 BKN110
     FM121800 32008KT P6SM VCSH BKN060 BKN110
     FM130000 29003KT P6SM FEW060
     FM131600 20006KT P6SM SKC=

USA.gov is the U.S. government's official web portal to all federal, state and local government web resources and services.